createdAt,value
2022-12-26T00:00:57.701Z,7.50
2022-12-26T00:03:24.759Z,7.50
2022-12-26T00:05:51.857Z,7.60
2022-12-26T00:08:19.273Z,7.60
2022-12-26T00:10:46.368Z,7.60
2022-12-26T00:13:40.113Z,7.60
2022-12-26T00:16:14.216Z,7.70
2022-12-26T00:18:41.927Z,7.60
2022-12-26T00:21:10.462Z,7.60
2022-12-26T00:23:38.466Z,7.60
2022-12-26T00:26:08.372Z,7.50
2022-12-26T00:28:35.822Z,7.50
2022-12-26T00:31:08.053Z,7.50
2022-12-26T00:33:36.019Z,7.40
2022-12-26T00:36:15.123Z,7.40
2022-12-26T00:38:44.921Z,7.30
2022-12-26T00:41:13.093Z,7.30
2022-12-26T00:43:40.070Z,7.10
2022-12-26T00:46:08.097Z,7.00
2022-12-26T00:48:35.429Z,6.90
2022-12-26T00:51:02.513Z,6.80
2022-12-26T00:53:29.607Z,6.60
2022-12-26T00:55:56.881Z,6.50
2022-12-26T00:58:24.594Z,6.40
2022-12-26T01:00:52.169Z,6.40
2022-12-26T01:03:19.901Z,6.30
2022-12-26T01:05:50.024Z,6.40
2022-12-26T01:08:23.584Z,6.40
2022-12-26T01:10:51.386Z,6.40
2022-12-26T01:13:18.466Z,6.50
2022-12-26T01:15:53.271Z,6.50
2022-12-26T01:18:21.187Z,6.50
2022-12-26T01:20:49.092Z,6.60
2022-12-26T01:23:17.226Z,6.60
2022-12-26T01:26:17.405Z,6.60
2022-12-26T01:28:31.115Z,6.60
2022-12-26T01:31:02.674Z,6.60
2022-12-26T01:33:29.986Z,6.60
2022-12-26T01:35:57.255Z,6.60
2022-12-26T01:38:24.278Z,6.60
2022-12-26T01:41:14.406Z,6.60
2022-12-26T01:44:02.677Z,6.70
2022-12-26T01:46:35.941Z,6.60
2022-12-26T01:49:14.035Z,6.50
2022-12-26T01:51:43.672Z,6.40
2022-12-26T01:54:39.040Z,6.40
2022-12-26T01:57:04.889Z,6.30
2022-12-26T01:59:36.270Z,6.30
2022-12-26T02:02:04.259Z,6.30
2022-12-26T02:04:57.137Z,6.20
2022-12-26T02:07:26.139Z,6.10
2022-12-26T02:09:53.647Z,6.20
2022-12-26T02:12:35.455Z,6.10
2022-12-26T02:15:13.709Z,6.10
2022-12-26T02:17:42.749Z,6.10
2022-12-26T02:20:33.513Z,6.00
2022-12-26T02:23:18.613Z,6.10
2022-12-26T02:26:23.795Z,6.10
2022-12-26T02:29:21.314Z,6.20
2022-12-26T02:32:18.630Z,6.20
2022-12-26T02:35:01.644Z,6.20
2022-12-26T02:37:49.821Z,6.20
2022-12-26T02:40:24.265Z,6.20
2022-12-26T02:43:11.848Z,6.20
2022-12-26T02:46:04.900Z,6.20
2022-12-26T02:48:46.810Z,6.20
2022-12-26T02:52:09.530Z,6.20
2022-12-26T02:55:13.208Z,6.20
2022-12-26T02:58:12.521Z,6.30
2022-12-26T03:01:02.881Z,6.20
2022-12-26T03:03:52.909Z,6.20
2022-12-26T03:06:47.673Z,6.30
2022-12-26T03:09:38.069Z,6.30
2022-12-26T03:12:45.953Z,6.30
2022-12-26T03:15:17.681Z,6.40
2022-12-26T03:17:47.144Z,6.40
2022-12-26T03:20:22.566Z,6.40
2022-12-26T03:22:59.999Z,6.50
2022-12-26T03:26:01.105Z,6.50
2022-12-26T03:28:28.556Z,6.60
2022-12-26T03:30:58.762Z,6.60
2022-12-26T03:33:47.691Z,6.60
2022-12-26T03:36:50.994Z,6.60
2022-12-26T03:39:53.572Z,6.60
2022-12-26T03:42:54.181Z,6.60
2022-12-26T03:45:59.243Z,6.60
2022-12-26T03:49:26.612Z,6.60
2022-12-26T03:52:17.935Z,6.70
2022-12-26T03:55:23.667Z,6.60
2022-12-26T03:58:32.171Z,6.60
2022-12-26T04:01:20.170Z,6.60
2022-12-26T04:04:08.058Z,6.60
2022-12-26T04:07:18.511Z,6.60
2022-12-26T04:10:27.513Z,6.60
2022-12-26T04:13:13.629Z,6.70
2022-12-26T04:16:16.737Z,6.70
2022-12-26T04:19:05.113Z,6.60
2022-12-26T04:22:03.354Z,6.60
2022-12-26T04:24:55.813Z,6.60
2022-12-26T04:27:45.156Z,6.50
2022-12-26T04:30:30.708Z,6.50
2022-12-26T04:33:30.143Z,6.40
2022-12-26T04:36:21.282Z,6.40
2022-12-26T04:39:13.571Z,6.40
2022-12-26T04:42:01.015Z,6.40
2022-12-26T04:44:29.346Z,6.50
2022-12-26T04:46:57.235Z,6.70
2022-12-26T04:49:42.899Z,6.80
2022-12-26T04:52:12.804Z,6.80
2022-12-26T04:54:39.837Z,6.80
2022-12-26T04:57:07.526Z,6.80
2022-12-26T04:59:35.152Z,6.80
2022-12-26T05:02:20.701Z,6.70
2022-12-26T05:05:06.413Z,6.80
2022-12-26T05:07:54.532Z,6.70
2022-12-26T05:10:27.263Z,6.70
2022-12-26T05:12:54.879Z,6.70
2022-12-26T05:15:22.435Z,6.70
2022-12-26T05:18:08.222Z,6.70
2022-12-26T05:20:47.452Z,6.70
2022-12-26T05:23:40.143Z,6.70
2022-12-26T05:26:28.680Z,6.70
2022-12-26T05:29:00.226Z,6.70
2022-12-26T05:31:34.727Z,6.70
2022-12-26T05:34:14.032Z,6.70
2022-12-26T05:36:45.733Z,6.80
2022-12-26T05:39:12.748Z,6.90
2022-12-26T05:41:40.702Z,7.00
2022-12-26T05:44:09.083Z,7.00
2022-12-26T05:46:36.712Z,7.00
2022-12-26T05:49:05.270Z,7.10
2022-12-26T05:51:32.305Z,7.20
2022-12-26T05:53:59.657Z,7.30
2022-12-26T05:56:26.627Z,7.30
2022-12-26T05:58:58.487Z,7.40
2022-12-26T06:01:27.868Z,7.40
2022-12-26T06:03:57.129Z,7.50
2022-12-26T06:06:25.299Z,7.50
2022-12-26T06:08:54.770Z,7.50
2022-12-26T06:11:22.772Z,7.60
2022-12-26T06:13:49.787Z,7.50
2022-12-26T06:16:18.275Z,7.50
2022-12-26T06:18:45.764Z,7.50
2022-12-26T06:21:15.856Z,7.40
2022-12-26T06:23:43.350Z,7.40
2022-12-26T06:26:12.724Z,7.40
2022-12-26T06:28:41.289Z,7.40
2022-12-26T06:31:14.788Z,7.40
2022-12-26T06:33:42.490Z,7.40
2022-12-26T06:36:15.463Z,7.40
2022-12-26T06:38:43.044Z,7.40
2022-12-26T06:41:12.866Z,7.40
2022-12-26T06:43:40.162Z,7.40
2022-12-26T06:46:08.507Z,7.40
2022-12-26T06:48:39.974Z,7.50
2022-12-26T06:51:11.086Z,7.60
2022-12-26T06:53:38.113Z,7.70
2022-12-26T06:56:14.646Z,7.70
2022-12-26T06:58:42.005Z,7.80
2022-12-26T07:01:15.180Z,7.90
2022-12-26T07:03:50.372Z,8.00
2022-12-26T07:06:33.628Z,8.10
2022-12-26T07:09:03.168Z,8.10
2022-12-26T07:11:33.390Z,8.20
2022-12-26T07:14:01.007Z,8.40
2022-12-26T07:16:28.327Z,8.40
2022-12-26T07:18:57.038Z,8.50
2022-12-26T07:21:25.498Z,8.50
2022-12-26T07:23:53.499Z,8.50
2022-12-26T07:26:21.405Z,8.60
2022-12-26T07:28:48.412Z,8.60
2022-12-26T07:31:19.802Z,8.60
2022-12-26T07:33:51.791Z,8.70
2022-12-26T07:36:19.477Z,8.70
2022-12-26T07:38:47.111Z,8.80
2022-12-26T07:41:32.949Z,8.80
2022-12-26T07:43:59.952Z,8.80
2022-12-26T07:46:26.953Z,8.80
2022-12-26T07:48:54.075Z,8.90
2022-12-26T07:51:21.419Z,8.90
2022-12-26T07:53:49.021Z,8.90
2022-12-26T07:56:16.396Z,8.90
2022-12-26T07:58:43.497Z,8.90
2022-12-26T08:01:10.590Z,8.90
2022-12-26T08:03:38.637Z,8.80
2022-12-26T08:06:05.889Z,8.80
2022-12-26T08:08:32.860Z,8.90
2022-12-26T08:11:05.304Z,8.90
2022-12-26T08:13:32.863Z,8.90
2022-12-26T08:16:00.958Z,9.00
2022-12-26T08:18:27.927Z,9.00
2022-12-26T08:20:54.828Z,9.10
2022-12-26T08:23:21.884Z,9.30
2022-12-26T08:25:48.801Z,9.50
2022-12-26T08:28:16.170Z,9.60
2022-12-26T08:30:43.251Z,9.60
2022-12-26T08:33:11.339Z,9.50
2022-12-26T08:35:40.138Z,9.50
2022-12-26T08:38:07.271Z,9.40
2022-12-26T08:40:43.099Z,9.40
2022-12-26T08:46:06.491Z,9.50
2022-12-26T08:48:34.388Z,9.50
2022-12-26T08:51:04.913Z,9.50
2022-12-26T08:53:33.329Z,9.50
2022-12-26T08:56:00.432Z,9.40
2022-12-26T08:58:28.993Z,9.40
2022-12-26T09:00:56.103Z,9.40
2022-12-26T09:03:23.624Z,9.40
2022-12-26T09:05:50.704Z,9.30
2022-12-26T09:08:17.743Z,9.30
2022-12-26T09:10:44.660Z,9.30
2022-12-26T09:13:11.661Z,9.20
2022-12-26T09:15:38.613Z,9.20
2022-12-26T09:18:05.582Z,9.20
2022-12-26T09:20:33.514Z,9.20
2022-12-26T09:23:00.435Z,9.10
2022-12-26T09:25:28.133Z,9.20
2022-12-26T09:27:58.981Z,9.20
2022-12-26T09:30:26.493Z,9.30
2022-12-26T09:32:54.070Z,9.30
2022-12-26T09:35:21.082Z,9.30
2022-12-26T09:37:48.039Z,9.30
2022-12-26T09:40:23.638Z,9.40
2022-12-26T09:43:12.870Z,9.40
2022-12-26T09:45:52.088Z,9.30
2022-12-26T09:48:31.758Z,9.30
2022-12-26T09:50:59.110Z,9.30
2022-12-26T09:53:40.173Z,9.30
2022-12-26T09:56:23.673Z,9.30
2022-12-26T09:59:07.973Z,9.30
2022-12-26T10:01:36.824Z,9.20
2022-12-26T10:04:16.625Z,9.20
2022-12-26T10:06:54.287Z,9.20
2022-12-26T10:09:42.838Z,9.20
2022-12-26T10:12:39.772Z,9.30
2022-12-26T10:15:31.933Z,9.30
2022-12-26T10:18:18.123Z,9.30
2022-12-26T10:21:02.184Z,9.40
2022-12-26T10:23:32.700Z,9.40
2022-12-26T10:26:39.680Z,9.30
2022-12-26T10:29:30.394Z,9.30
2022-12-26T10:32:05.540Z,9.30
2022-12-26T10:34:51.716Z,9.20
2022-12-26T10:37:39.576Z,9.20
2022-12-26T10:40:27.228Z,9.20
2022-12-26T10:42:57.512Z,9.20
2022-12-26T10:45:27.530Z,9.20
2022-12-26T10:47:55.183Z,9.30
2022-12-26T10:50:34.954Z,9.20
2022-12-26T10:53:06.968Z,9.20
2022-12-26T10:55:35.517Z,9.20
2022-12-26T10:58:29.450Z,9.20
2022-12-26T11:00:56.773Z,9.20
2022-12-26T11:03:23.915Z,9.20
2022-12-26T11:06:09.621Z,9.20
2022-12-26T11:08:49.442Z,9.20
2022-12-26T11:11:46.293Z,9.20
2022-12-26T11:14:33.290Z,9.20
2022-12-26T11:17:13.613Z,9.20
2022-12-26T11:19:42.881Z,9.20
2022-12-26T11:22:29.624Z,9.20
2022-12-26T11:25:30.512Z,9.20
2022-12-26T11:27:59.261Z,9.30
2022-12-26T11:30:28.018Z,9.30
2022-12-26T11:33:17.949Z,9.20
2022-12-26T11:35:55.440Z,9.20
2022-12-26T11:38:42.406Z,9.20
2022-12-26T11:41:33.523Z,9.20
2022-12-26T11:44:09.482Z,9.10
2022-12-26T11:46:41.212Z,9.20
2022-12-26T11:49:18.611Z,9.20
2022-12-26T11:51:49.192Z,9.20
2022-12-26T11:54:47.370Z,9.20
2022-12-26T11:57:20.639Z,9.20
2022-12-26T11:59:49.441Z,9.20
2022-12-26T12:02:22.916Z,9.20
2022-12-26T12:04:51.975Z,9.10
2022-12-26T12:07:54.389Z,9.10
2022-12-26T12:10:58.033Z,9.10
2022-12-26T12:13:42.277Z,9.10
2022-12-26T12:16:09.177Z,9.10
2022-12-26T12:18:57.727Z,9.10
2022-12-26T12:21:43.644Z,9.20
2022-12-26T12:24:16.393Z,9.20
2022-12-26T12:26:57.579Z,9.20
2022-12-26T12:29:48.187Z,9.30
2022-12-26T12:32:24.962Z,9.30
2022-12-26T12:35:16.760Z,9.30
2022-12-26T12:37:43.661Z,9.30
2022-12-26T12:40:22.679Z,9.30
2022-12-26T12:43:00.131Z,9.20
2022-12-26T12:45:34.095Z,9.20
2022-12-26T12:48:22.945Z,9.20
2022-12-26T12:51:07.993Z,9.20
2022-12-26T12:54:09.109Z,9.30
2022-12-26T12:56:45.071Z,9.30
2022-12-26T12:59:22.384Z,9.30
2022-12-26T13:01:54.017Z,9.30
2022-12-26T13:04:29.347Z,9.40
2022-12-26T13:07:02.460Z,9.40
2022-12-26T13:09:42.507Z,9.40
2022-12-26T13:12:26.546Z,9.40
2022-12-26T13:15:23.548Z,9.50
2022-12-26T13:17:53.981Z,9.60
2022-12-26T13:20:48.281Z,9.60
2022-12-26T13:23:48.884Z,9.60
2022-12-26T13:26:30.846Z,9.60
2022-12-26T13:29:30.090Z,9.60
2022-12-26T13:31:59.456Z,9.50
2022-12-26T13:34:27.100Z,9.40
2022-12-26T13:36:56.598Z,9.40
2022-12-26T13:39:23.532Z,9.40
2022-12-26T13:42:14.486Z,9.40
2022-12-26T13:44:41.770Z,9.30
2022-12-26T13:47:34.727Z,9.30
2022-12-26T13:50:39.467Z,9.30
2022-12-26T13:53:24.837Z,9.30
2022-12-26T13:55:59.919Z,9.30
2022-12-26T13:58:35.626Z,9.20
2022-12-26T14:01:27.284Z,9.20
2022-12-26T14:04:32.298Z,9.20
2022-12-26T14:07:20.350Z,9.20
2022-12-26T14:10:04.674Z,9.10
2022-12-26T14:12:43.698Z,9.10
2022-12-26T14:15:32.056Z,9.10
2022-12-26T14:18:20.073Z,9.10
2022-12-26T14:20:49.958Z,9.10
2022-12-26T14:23:37.850Z,9.10
2022-12-26T14:26:26.301Z,9.10
2022-12-26T14:29:14.791Z,9.10
2022-12-26T14:31:47.765Z,9.10
2022-12-26T14:34:38.981Z,9.10
2022-12-26T14:37:32.205Z,9.10
2022-12-26T14:40:17.133Z,9.00
2022-12-26T14:43:10.562Z,9.00
2022-12-26T14:45:40.487Z,9.10
2022-12-26T14:48:16.358Z,9.10
2022-12-26T14:50:46.321Z,9.10
2022-12-26T14:53:27.426Z,9.10
2022-12-26T14:56:14.056Z,9.10
2022-12-26T14:58:42.331Z,9.10
2022-12-26T15:01:09.423Z,9.10
2022-12-26T15:04:09.899Z,9.00
2022-12-26T15:06:54.029Z,9.00
2022-12-26T15:09:55.006Z,9.00
2022-12-26T15:12:58.380Z,8.90
2022-12-26T15:15:34.676Z,8.90
2022-12-26T15:18:49.611Z,8.90
2022-12-26T15:21:34.699Z,8.90
2022-12-26T15:25:20.674Z,8.90
2022-12-26T15:27:59.410Z,8.80
2022-12-26T15:30:45.471Z,8.80
2022-12-26T15:33:40.487Z,8.90
2022-12-26T15:36:30.673Z,8.90
2022-12-26T15:39:11.346Z,9.00
2022-12-26T15:41:56.222Z,8.90
2022-12-26T15:44:53.582Z,8.90
2022-12-26T15:47:28.387Z,8.90
2022-12-26T15:50:28.392Z,8.90
2022-12-26T15:53:01.156Z,8.90
2022-12-26T15:55:47.268Z,8.80
2022-12-26T15:58:44.411Z,8.80
2022-12-26T16:01:12.064Z,8.80
2022-12-26T16:03:55.802Z,8.80
2022-12-26T16:06:49.924Z,8.70
2022-12-26T16:09:45.511Z,8.70
2022-12-26T16:12:29.643Z,8.70
2022-12-26T16:15:10.136Z,8.70
2022-12-26T16:17:38.515Z,8.70
2022-12-26T16:20:50.040Z,8.70
2022-12-26T16:23:20.936Z,8.70
2022-12-26T16:25:52.719Z,8.80
2022-12-26T16:28:26.587Z,8.80
2022-12-26T16:30:53.791Z,8.80
2022-12-26T16:33:20.848Z,8.70
2022-12-26T16:35:47.972Z,8.80
2022-12-26T16:38:18.501Z,8.80
2022-12-26T16:40:47.864Z,8.80
2022-12-26T16:43:36.881Z,8.80
2022-12-26T16:46:06.975Z,8.70
2022-12-26T16:48:35.998Z,8.80
2022-12-26T16:51:27.834Z,8.80
2022-12-26T16:53:54.958Z,8.80
2022-12-26T16:56:24.662Z,8.80
2022-12-26T16:59:04.746Z,8.80
2022-12-26T17:01:33.283Z,8.80
2022-12-26T17:04:12.786Z,8.80
2022-12-26T17:06:49.081Z,8.70
2022-12-26T17:09:17.361Z,8.80
2022-12-26T17:12:01.302Z,8.80
2022-12-26T17:14:38.499Z,8.70
2022-12-26T17:17:23.180Z,8.70
2022-12-26T17:19:54.204Z,8.70
2022-12-26T17:22:36.159Z,8.60
2022-12-26T17:25:30.873Z,8.70
2022-12-26T17:28:15.118Z,8.70
2022-12-26T17:30:48.651Z,8.70
2022-12-26T17:33:15.587Z,8.70
2022-12-26T17:36:44.766Z,8.70
2022-12-26T17:38:35.053Z,8.70
2022-12-26T17:41:05.498Z,8.70
2022-12-26T17:43:35.718Z,8.70
2022-12-26T17:46:03.927Z,8.70
2022-12-26T17:48:31.487Z,8.70
2022-12-26T17:51:01.719Z,8.60
2022-12-26T17:53:32.420Z,8.70
2022-12-26T17:56:02.198Z,8.70
2022-12-26T17:58:29.956Z,8.70
2022-12-26T18:00:57.405Z,8.70
2022-12-26T18:03:24.323Z,8.70
2022-12-26T18:05:52.923Z,8.60
2022-12-26T18:08:33.243Z,8.60
2022-12-26T18:11:02.242Z,8.60
2022-12-26T18:13:29.337Z,8.60
2022-12-26T18:15:57.877Z,8.60
2022-12-26T18:18:39.804Z,8.60
2022-12-26T18:21:09.067Z,8.50
2022-12-26T18:23:36.469Z,8.60
2022-12-26T18:26:07.504Z,8.60
2022-12-26T18:28:35.460Z,8.60
2022-12-26T18:31:02.579Z,8.60
2022-12-26T18:33:29.537Z,8.50
2022-12-26T18:35:56.743Z,8.60
2022-12-26T18:38:23.732Z,8.50
2022-12-26T18:40:55.575Z,8.40
2022-12-26T18:43:22.632Z,8.40
2022-12-26T18:45:49.817Z,8.40
2022-12-26T18:48:17.190Z,8.30
2022-12-26T18:50:44.568Z,8.30
2022-12-26T18:53:12.486Z,8.30
2022-12-26T18:55:40.345Z,8.30
2022-12-26T18:58:07.690Z,8.30
2022-12-26T19:00:36.198Z,8.30
2022-12-26T19:03:03.299Z,8.30
2022-12-26T19:05:33.920Z,8.20
2022-12-26T19:08:02.442Z,8.20
2022-12-26T19:10:32.787Z,8.20
2022-12-26T19:13:05.588Z,8.20
2022-12-26T19:15:35.150Z,8.10
2022-12-26T19:18:03.772Z,8.00
2022-12-26T19:20:31.215Z,7.90
2022-12-26T19:22:58.298Z,7.90
2022-12-26T19:25:26.630Z,7.80
2022-12-26T19:27:54.419Z,7.70
2022-12-26T19:30:22.549Z,7.70
2022-12-26T19:32:50.506Z,7.60
2022-12-26T19:35:18.113Z,7.60
2022-12-26T19:37:45.529Z,7.60
2022-12-26T19:40:13.985Z,7.50
2022-12-26T19:42:42.404Z,7.50
2022-12-26T19:45:11.536Z,7.50
2022-12-26T19:47:38.572Z,7.50
2022-12-26T19:50:06.956Z,7.50
2022-12-26T19:52:36.594Z,7.40
2022-12-26T19:55:06.014Z,7.50
2022-12-26T19:57:33.015Z,7.40
2022-12-26T20:00:00.070Z,7.50
2022-12-26T20:02:27.229Z,7.50
2022-12-26T20:04:54.291Z,7.50
2022-12-26T20:07:21.435Z,7.50
2022-12-26T20:09:48.372Z,7.40
2022-12-26T20:12:15.421Z,7.40
2022-12-26T20:14:42.342Z,7.40
2022-12-26T20:17:12.387Z,7.40
2022-12-26T20:19:39.888Z,7.30
2022-12-26T20:22:07.814Z,7.30
2022-12-26T20:24:35.171Z,7.30
2022-12-26T20:27:03.063Z,7.20
2022-12-26T20:29:30.146Z,7.20
2022-12-26T20:31:58.591Z,7.20
2022-12-26T20:34:25.688Z,7.20
2022-12-26T20:36:52.790Z,7.10
2022-12-26T20:39:20.229Z,7.10
2022-12-26T20:41:47.563Z,7.00
2022-12-26T20:44:16.171Z,7.10
2022-12-26T20:46:44.340Z,7.10
2022-12-26T20:49:11.333Z,7.10
2022-12-26T20:51:40.661Z,7.10
2022-12-26T20:54:09.240Z,7.10
2022-12-26T20:56:37.495Z,7.10
2022-12-26T20:59:06.009Z,7.10
2022-12-26T21:01:33.448Z,7.10
2022-12-26T21:04:00.522Z,7.10
2022-12-26T21:06:31.566Z,7.10
2022-12-26T21:08:59.173Z,7.10
2022-12-26T21:11:31.650Z,7.00
2022-12-26T21:14:08.122Z,7.10
2022-12-26T21:16:47.548Z,7.10
2022-12-26T21:19:15.864Z,7.00
2022-12-26T21:21:46.006Z,7.00
2022-12-26T21:24:15.653Z,7.00
2022-12-26T21:26:44.099Z,7.00
2022-12-26T21:29:23.373Z,7.00
2022-12-26T21:31:50.772Z,7.00
2022-12-26T21:34:19.838Z,6.90
2022-12-26T21:37:06.022Z,6.90
2022-12-26T21:39:34.539Z,6.90
2022-12-26T21:42:01.645Z,6.90
2022-12-26T21:44:29.477Z,6.90
2022-12-26T21:46:56.455Z,6.90
2022-12-26T21:49:23.480Z,6.80
2022-12-26T21:51:50.405Z,6.80
2022-12-26T21:54:35.733Z,6.80
2022-12-26T21:57:02.668Z,6.80
2022-12-26T21:59:48.367Z,6.80
2022-12-26T22:02:34.333Z,6.80
2022-12-26T22:05:01.731Z,6.80
2022-12-26T22:07:29.181Z,6.70
2022-12-26T22:09:56.354Z,6.70
2022-12-26T22:12:41.783Z,6.80
2022-12-26T22:15:28.410Z,6.70
2022-12-26T22:17:55.346Z,6.80
2022-12-26T22:20:22.790Z,6.80
2022-12-26T22:22:49.836Z,6.80
2022-12-26T22:25:17.172Z,6.70
2022-12-26T22:27:44.071Z,6.70
2022-12-26T22:30:11.821Z,6.60
2022-12-26T22:32:38.752Z,6.70
2022-12-26T22:35:06.256Z,6.60
2022-12-26T22:37:33.160Z,6.60
2022-12-26T22:40:00.210Z,6.60
2022-12-26T22:42:29.755Z,6.60
2022-12-26T22:44:57.609Z,6.60
2022-12-26T22:47:25.982Z,6.60
2022-12-26T22:49:52.967Z,6.60
2022-12-26T22:52:19.875Z,6.60
2022-12-26T22:54:46.872Z,6.60
2022-12-26T22:57:15.143Z,6.60
2022-12-26T23:00:07.703Z,6.50
2022-12-26T23:02:29.302Z,6.50
2022-12-26T23:04:56.621Z,6.50
2022-12-26T23:07:23.849Z,6.40
2022-12-26T23:09:51.113Z,6.40
2022-12-26T23:12:37.256Z,6.30
2022-12-26T23:15:05.573Z,6.20
2022-12-26T23:17:56.483Z,6.20
2022-12-26T23:20:45.110Z,6.20
2022-12-26T23:23:12.343Z,6.10
2022-12-26T23:25:39.805Z,5.90
2022-12-26T23:28:25.335Z,5.80
2022-12-26T23:30:52.510Z,5.60
2022-12-26T23:33:19.559Z,5.50
2022-12-26T23:35:46.476Z,5.30
2022-12-26T23:38:13.444Z,5.20
2022-12-26T23:40:40.392Z,5.10
2022-12-26T23:43:07.319Z,4.90
2022-12-26T23:45:34.325Z,4.90
2022-12-26T23:48:01.226Z,4.80
2022-12-26T23:50:28.210Z,4.80
2022-12-26T23:52:55.092Z,4.70
2022-12-26T23:55:22.059Z,4.70
2022-12-26T23:57:49.369Z,4.70
